Time;durP1;ratioP1;P1;durP2;ratioP2;P2;SDS_P1;SDS_P2;PMS_P1;PMS_P2;Temp;Humidity;BMP_temperature;BMP_pressure;BME280_temperature;BME280_humidity;BME280_pressure;Samples;Min_cycle;Max_cycle;Signal;HPM_P1;HPM_P2
2022/09/28 00:01:24;;;;;;;6.03;1.30;;;9.50;95.10;;;;;;4983409;28;20513;-70
2022/09/28 00:03:53;;;;;;;2.03;1.20;;;9.50;94.90;;;;;;5009034;28;20421;-69
2022/09/28 00:06:23;;;;;;;2.70;1.40;;;9.60;94.90;;;;;;5003418;28;20448;-69
2022/09/28 00:08:49;;;;;;;2.30;1.17;;;9.60;94.90;;;;;;5007793;28;20433;-69
2022/09/28 00:11:16;;;;;;;1.87;1.23;;;9.70;94.90;;;;;;5003135;28;20418;-70
2022/09/28 00:13:42;;;;;;;1.57;1.40;;;9.70;94.80;;;;;;5003258;28;20425;-70
2022/09/28 00:16:14;;;;;;;6.03;1.30;;;9.70;94.80;;;;;;4999694;28;20421;-71
2022/09/28 00:18:40;;;;;;;2.57;1.50;;;9.70;94.60;;;;;;5007107;28;20463;-70
2022/09/28 00:21:09;;;;;;;1.53;1.20;;;9.70;94.70;;;;;;5005885;28;20882;-70
2022/09/28 00:26:19;;;;;;;4.40;1.30;;;9.70;94.80;;;;;;5007447;28;20427;-70
2022/09/28 00:28:45;;;;;;;1.47;1.17;;;9.70;94.80;;;;;;5001150;28;20884;-69
2022/09/28 00:31:11;;;;;;;1.03;1.03;;;9.70;94.90;;;;;;5004994;28;20303;-68
2022/09/28 00:33:39;;;;;;;2.77;1.50;;;9.70;94.90;;;;;;5001820;28;20225;-70
2022/09/28 00:36:05;;;;;;;2.17;1.10;;;9.70;94.80;;;;;;5009563;28;20428;-69
2022/09/28 00:38:30;;;;;;;3.77;1.73;;;9.70;94.80;;;;;;5002905;28;20757;-70
2022/09/28 00:40:56;;;;;;;3.10;1.30;;;9.60;94.80;;;;;;5010046;28;20425;-70
2022/09/28 00:43:23;;;;;;;2.43;1.37;;;9.60;94.90;;;;;;5007828;28;20178;-69
2022/09/28 00:45:57;;;;;;;3.43;1.20;;;9.70;95.00;;;;;;5006963;28;20209;-70
2022/09/28 00:48:26;;;;;;;1.47;1.17;;;9.70;94.90;;;;;;4994766;28;20468;-70
2022/09/28 00:50:51;;;;;;;2.00;1.23;;;9.70;95.00;;;;;;4994534;28;20436;-69
2022/09/28 00:53:22;;;;;;;4.77;1.70;;;9.70;95.10;;;;;;5010541;28;20432;-70
2022/09/28 00:55:55;;;;;;;3.50;1.70;;;9.60;95.40;;;;;;5010148;28;20802;-69
2022/09/28 00:58:26;;;;;;;8.20;1.73;;;9.60;95.60;;;;;;4987547;28;20482;-70
2022/09/28 01:00:55;;;;;;;2.20;1.60;;;9.60;95.70;;;;;;5007194;28;20896;-70
2022/09/28 01:03:20;;;;;;;3.77;1.27;;;9.60;95.90;;;;;;5003350;28;20417;-71
2022/09/28 01:05:48;;;;;;;2.67;1.57;;;9.60;96.10;;;;;;4988970;28;20499;-69
2022/09/28 01:08:14;;;;;;;5.00;1.40;;;9.60;96.30;;;;;;5003236;28;20684;-69
2022/09/28 01:10:42;;;;;;;20.43;6.60;;;9.60;96.50;;;;;;5002092;28;20432;-70
2022/09/28 01:13:08;;;;;;;18.97;7.10;;;9.60;96.50;;;;;;5003428;28;20436;-69
2022/09/28 01:15:43;;;;;;;12.73;3.60;;;9.70;96.50;;;;;;5005343;28;20453;-71
2022/09/28 01:18:33;;;;;;;2.73;1.50;;;9.60;96.50;;;;;;5011913;28;20480;-70
2022/09/28 01:21:13;;;;;;;2.63;1.63;;;9.70;96.50;;;;;;5004305;28;21013;-70
2022/09/28 01:23:59;;;;;;;3.43;2.10;;;9.70;96.60;;;;;;4987479;28;20424;-70
2022/09/28 01:26:33;;;;;;;1.60;1.37;;;9.70;96.60;;;;;;4989913;28;21217;-70
2022/09/28 01:29:26;;;;;;;3.37;1.40;;;9.70;96.50;;;;;;5013155;28;20423;-70
2022/09/28 01:32:02;;;;;;;1.97;1.40;;;9.70;96.40;;;;;;5013062;28;20527;-70
2022/09/28 01:34:36;;;;;;;5.20;2.23;;;9.80;96.40;;;;;;5015837;28;20431;-70
2022/09/28 01:37:05;;;;;;;3.90;1.70;;;9.80;96.40;;;;;;5010933;28;20486;-69
2022/09/28 01:39:40;;;;;;;5.03;1.50;;;9.80;96.40;;;;;;5014944;28;20911;-69
2022/09/28 01:42:14;;;;;;;6.10;1.77;;;9.80;96.40;;;;;;5011977;28;20425;-69
2022/09/28 01:44:43;;;;;;;3.37;1.60;;;9.80;96.30;;;;;;5013384;28;20420;-70
2022/09/28 01:47:13;;;;;;;4.40;2.17;;;9.80;96.30;;;;;;5011184;28;20475;-68
2022/09/28 01:49:59;;;;;;;3.63;1.63;;;9.80;96.30;;;;;;5007592;28;20472;-71
2022/09/28 01:52:41;;;;;;;3.93;1.27;;;9.90;96.30;;;;;;5004928;28;20857;-70
2022/09/28 01:55:17;;;;;;;2.33;1.60;;;9.90;96.10;;;;;;5005021;28;20416;-71
2022/09/28 01:57:54;;;;;;;2.43;1.63;;;10.00;96.00;;;;;;5007108;28;20501;-70
2022/09/28 02:00:22;;;;;;;4.17;2.00;;;10.00;95.80;;;;;;4988452;28;20425;-69
2022/09/28 02:02:55;;;;;;;4.40;1.50;;;10.00;95.60;;;;;;5006274;28;20528;-69
2022/09/28 02:05:28;;;;;;;4.57;1.53;;;10.10;95.60;;;;;;4998219;28;20428;-71
2022/09/28 02:08:12;;;;;;;2.40;1.30;;;10.10;95.60;;;;;;5006639;28;20540;-70
2022/09/28 02:10:44;;;;;;;3.27;1.50;;;10.20;95.50;;;;;;5009238;28;20467;-71
2022/09/28 02:13:26;;;;;;;6.37;1.50;;;10.20;95.30;;;;;;4991783;28;20527;-70
2022/09/28 02:16:04;;;;;;;4.87;1.53;;;10.20;95.40;;;;;;5011092;28;20511;-70
2022/09/28 02:18:30;;;;;;;4.10;1.70;;;10.20;95.20;;;;;;5008803;28;20476;-69
2022/09/28 02:21:04;;;;;;;4.30;1.60;;;10.20;95.20;;;;;;5003823;28;20816;-70
2022/09/28 02:23:33;;;;;;;4.33;1.87;;;10.20;95.20;;;;;;4989636;28;20499;-70
2022/09/28 02:26:07;;;;;;;7.07;2.30;;;10.30;95.00;;;;;;5000191;28;20560;-69
2022/09/28 02:28:33;;;;;;;4.30;1.73;;;10.30;94.80;;;;;;5010939;28;20520;-72
2022/09/28 02:30:59;;;;;;;5.97;2.10;;;10.40;94.70;;;;;;5013001;28;21206;-69
2022/09/28 02:33:37;;;;;;;7.27;2.00;;;10.40;94.70;;;;;;4992953;28;20550;-70
2022/09/28 02:36:03;;;;;;;7.97;2.00;;;10.40;94.60;;;;;;5002532;28;20512;-70
2022/09/28 02:38:32;;;;;;;5.80;1.80;;;10.40;94.50;;;;;;4989456;28;20476;-70
2022/09/28 02:41:05;;;;;;;2.70;1.60;;;10.40;94.60;;;;;;5000792;28;20425;-69
2022/09/28 02:43:33;;;;;;;4.40;1.60;;;10.40;94.50;;;;;;5006471;28;20786;-70
2022/09/28 02:46:11;;;;;;;6.97;1.90;;;10.40;94.50;;;;;;5012294;28;21027;-70
2022/09/28 02:48:49;;;;;;;4.20;1.90;;;10.40;94.50;;;;;;5006638;28;20983;-71
2022/09/28 02:51:23;;;;;;;7.87;1.90;;;10.50;94.50;;;;;;5005564;28;20424;-70
2022/09/28 02:54:00;;;;;;;3.37;1.90;;;10.50;94.60;;;;;;5006643;28;20420;-70
2022/09/28 02:56:36;;;;;;;11.43;2.00;;;10.40;94.70;;;;;;5006669;28;20793;-70
2022/09/28 02:59:13;;;;;;;4.03;1.77;;;10.40;94.90;;;;;;5009745;28;20836;-69
2022/09/28 03:01:47;;;;;;;4.97;1.80;;;10.40;95.00;;;;;;5004354;28;20409;-70
2022/09/28 03:04:36;;;;;;;3.10;1.70;;;10.30;95.20;;;;;;5006782;28;21173;-69
2022/09/28 03:07:15;;;;;;;3.17;1.70;;;10.30;95.40;;;;;;4984790;28;21137;-70
2022/09/28 03:09:53;;;;;;;3.17;1.90;;;10.30;95.50;;;;;;4983437;28;20437;-71
2022/09/28 03:12:22;;;;;;;4.10;1.50;;;10.20;95.60;;;;;;5003771;28;20887;-69
2022/09/28 03:15:04;;;;;;;6.43;1.70;;;10.30;95.70;;;;;;5000576;28;20428;-69
2022/09/28 03:17:29;;;;;;;5.73;1.97;;;10.30;95.60;;;;;;5007621;28;20476;-69
2022/09/28 03:19:55;;;;;;;3.00;1.70;;;10.30;95.60;;;;;;5001573;28;20530;-69
2022/09/28 03:22:20;;;;;;;5.93;1.90;;;10.30;95.50;;;;;;5008507;28;20193;-69
2022/09/28 03:24:46;;;;;;;5.53;2.40;;;10.30;95.50;;;;;;5014109;28;20184;-71
2022/09/28 03:27:11;;;;;;;5.83;1.70;;;10.30;95.50;;;;;;5002612;28;20201;-70
2022/09/28 03:29:39;;;;;;;8.10;2.00;;;10.30;95.60;;;;;;5010345;28;20248;-70
2022/09/28 03:32:05;;;;;;;6.93;1.77;;;10.20;95.80;;;;;;4996693;28;20268;-71
2022/09/28 03:34:30;;;;;;;2.10;1.40;;;10.20;96.00;;;;;;5013419;28;20919;-70
2022/09/28 03:36:56;;;;;;;6.80;2.37;;;10.20;95.90;;;;;;5006167;28;20275;-70
2022/09/28 03:39:21;;;;;;;3.70;1.70;;;10.20;95.80;;;;;;5007309;28;20178;-70
2022/09/28 03:41:47;;;;;;;8.03;2.13;;;10.20;95.90;;;;;;5006483;28;20177;-71
2022/09/28 03:44:12;;;;;;;3.70;1.83;;;10.20;96.10;;;;;;5004098;28;20268;-71
2022/09/28 03:46:38;;;;;;;5.30;1.80;;;10.20;96.20;;;;;;4999553;28;20214;-70
2022/09/28 03:49:04;;;;;;;5.43;1.70;;;10.20;96.40;;;;;;5001996;28;20184;-70
2022/09/28 03:51:29;;;;;;;9.73;2.47;;;10.20;96.60;;;;;;5004298;28;20205;-70
2022/09/28 03:53:55;;;;;;;5.57;2.10;;;10.20;96.70;;;;;;4999163;28;20519;-70
2022/09/28 03:56:20;;;;;;;12.47;2.53;;;10.10;96.80;;;;;;5002770;28;20204;-70
2022/09/28 03:58:46;;;;;;;4.90;1.80;;;10.10;96.90;;;;;;4996704;28;20221;-70
2022/09/28 04:01:14;;;;;;;3.50;1.90;;;10.10;96.90;;;;;;5001491;28;20656;-70
2022/09/28 04:03:40;;;;;;;4.93;2.10;;;10.10;96.90;;;;;;5000918;28;20180;-70
2022/09/28 04:06:06;;;;;;;4.20;2.00;;;10.10;97.20;;;;;;5002943;28;20739;-70
2022/09/28 04:08:32;;;;;;;6.70;2.57;;;10.00;97.70;;;;;;4999612;28;20456;-70
2022/09/28 04:10:59;;;;;;;2.83;1.73;;;10.00;97.90;;;;;;5005679;28;20649;-69
2022/09/28 04:13:26;;;;;;;3.30;1.43;;;10.00;97.90;;;;;;4999253;28;20441;-69
2022/09/28 04:15:53;;;;;;;4.73;1.90;;;9.90;97.70;;;;;;5002880;28;20508;-71
2022/09/28 04:18:20;;;;;;;3.50;1.80;;;9.90;97.80;;;;;;5001404;28;20477;-70
2022/09/28 04:20:46;;;;;;;3.47;1.23;;;9.80;97.50;;;;;;5007462;28;20498;-70
2022/09/28 04:23:13;;;;;;;5.57;1.30;;;9.80;97.50;;;;;;5003842;28;20898;-71
2022/09/28 04:25:39;;;;;;;3.40;1.40;;;9.80;97.30;;;;;;5007042;28;20412;-70
2022/09/28 04:30:49;;;;;;;2.20;1.20;;;9.80;96.60;;;;;;4996937;28;20213;-70
2022/09/28 04:33:14;;;;;;;3.13;1.33;;;9.80;96.40;;;;;;5003216;28;20480;-71
2022/09/28 04:35:40;;;;;;;3.00;1.20;;;9.70;96.30;;;;;;4983887;28;20287;-71
2022/09/28 04:38:06;;;;;;;1.73;1.10;;;9.70;96.10;;;;;;5006999;28;20273;-71
2022/09/28 04:40:31;;;;;;;4.13;1.50;;;9.70;96.10;;;;;;4998797;28;20235;-71
2022/09/28 04:42:57;;;;;;;3.70;1.00;;;9.80;96.20;;;;;;4987039;28;20190;-71
2022/09/28 04:45:25;;;;;;;4.20;1.03;;;9.70;96.20;;;;;;4996142;28;20189;-70
2022/09/28 04:47:51;;;;;;;2.57;1.40;;;9.80;96.30;;;;;;5000352;28;20274;-74
2022/09/28 04:50:16;;;;;;;1.90;1.10;;;9.80;96.20;;;;;;4999312;28;20496;-74
2022/09/28 04:52:42;;;;;;;3.10;1.40;;;9.80;96.10;;;;;;5004960;28;20193;-71
2022/09/28 04:55:11;;;;;;;5.53;1.33;;;9.80;96.10;;;;;;5002982;28;20277;-72
2022/09/28 04:57:37;;;;;;;3.03;1.67;;;9.80;96.00;;;;;;5002699;28;20271;-72
2022/09/28 05:00:03;;;;;;;3.10;1.40;;;9.80;96.00;;;;;;5000072;28;20529;-72
2022/09/28 05:02:29;;;;;;;3.70;1.63;;;9.80;96.10;;;;;;5008338;28;20193;-71
2022/09/28 05:04:55;;;;;;;1.60;1.27;;;9.80;96.40;;;;;;5003560;28;20428;-73
2022/09/28 05:07:21;;;;;;;3.10;1.40;;;9.70;96.40;;;;;;5004746;28;20521;-75
2022/09/28 05:09:46;;;;;;;6.70;1.67;;;9.70;96.60;;;;;;5008212;28;20495;-73
2022/09/28 05:12:12;;;;;;;4.83;1.20;;;9.70;96.70;;;;;;5008007;28;20192;-73
2022/09/28 05:14:37;;;;;;;4.57;1.23;;;9.70;96.90;;;;;;5005325;28;20181;-70
2022/09/28 05:17:03;;;;;;;3.80;1.23;;;9.60;96.70;;;;;;5006655;28;20209;-70
2022/09/28 05:19:29;;;;;;;2.40;1.53;;;9.50;96.50;;;;;;5011830;28;20264;-70
2022/09/28 05:21:56;;;;;;;1.90;1.30;;;9.40;96.60;;;;;;5007628;28;20233;-70
2022/09/28 05:24:22;;;;;;;2.70;1.77;;;9.50;96.80;;;;;;5010633;28;20178;-72
2022/09/28 05:26:48;;;;;;;3.23;1.63;;;9.50;96.80;;;;;;5007542;28;20545;-70
2022/09/28 05:29:14;;;;;;;2.93;1.67;;;9.50;96.70;;;;;;5004923;28;20512;-71
2022/09/28 05:31:39;;;;;;;2.93;1.53;;;9.40;96.80;;;;;;4991304;28;20186;-69
2022/09/28 05:34:05;;;;;;;1.60;1.13;;;9.40;96.80;;;;;;5009146;28;20208;-71
2022/09/28 05:36:31;;;;;;;2.13;1.50;;;9.40;96.80;;;;;;5001919;28;20237;-71
2022/09/28 05:38:57;;;;;;;3.13;1.70;;;9.40;96.90;;;;;;5006446;28;20245;-70
2022/09/28 05:41:23;;;;;;;2.67;1.37;;;9.40;97.00;;;;;;5014453;28;20780;-70
2022/09/28 05:43:50;;;;;;;2.57;1.50;;;9.40;96.90;;;;;;5003736;28;20859;-70
2022/09/28 05:46:17;;;;;;;6.70;2.00;;;9.30;96.80;;;;;;5003530;28;20178;-71
2022/09/28 05:48:42;;;;;;;2.67;1.33;;;9.30;96.80;;;;;;5007084;28;20892;-70
2022/09/28 05:51:09;;;;;;;2.93;1.70;;;9.40;97.00;;;;;;5005295;28;20507;-71
2022/09/28 05:53:35;;;;;;;1.77;1.30;;;9.40;97.00;;;;;;5000964;28;20673;-70
2022/09/28 05:56:00;;;;;;;1.57;1.37;;;9.40;97.10;;;;;;5002992;28;20418;-70
2022/09/28 05:58:27;;;;;;;6.03;1.80;;;9.40;97.20;;;;;;5007275;28;20651;-71
2022/09/28 06:00:54;;;;;;;7.80;2.10;;;9.40;97.10;;;;;;5000201;28;20932;-72
2022/09/28 06:03:19;;;;;;;3.10;1.70;;;9.40;97.20;;;;;;5010313;28;20511;-70
2022/09/28 06:05:46;;;;;;;2.03;1.60;;;9.40;97.40;;;;;;5005485;28;21177;-71
2022/09/28 06:08:11;;;;;;;3.70;1.70;;;9.50;97.30;;;;;;5015115;28;20213;-70
2022/09/28 06:10:37;;;;;;;2.57;1.53;;;9.50;97.30;;;;;;5006223;28;20429;-71
2022/09/28 06:13:05;;;;;;;6.60;1.97;;;9.40;97.20;;;;;;5009553;28;20663;-71
2022/09/28 06:15:32;;;;;;;3.27;1.70;;;9.40;97.20;;;;;;5004265;28;20805;-70
2022/09/28 06:17:59;;;;;;;8.90;3.03;;;9.40;97.40;;;;;;5004852;28;20564;-70
2022/09/28 06:20:26;;;;;;;2.07;1.40;;;9.50;97.60;;;;;;5004513;28;20458;-71
2022/09/28 06:22:54;;;;;;;2.20;1.50;;;9.60;97.60;;;;;;5009023;28;20524;-70
2022/09/28 06:25:21;;;;;;;3.10;2.10;;;9.60;97.50;;;;;;4984836;28;20429;-71
2022/09/28 06:28:13;;;;;;;3.83;1.70;;;9.60;97.50;;;;;;5006836;28;20471;-71
2022/09/28 06:30:40;;;;;;;3.30;1.87;;;9.60;97.40;;;;;;5005830;28;20437;-71
2022/09/28 06:33:08;;;;;;;5.07;2.20;;;9.60;97.40;;;;;;5007368;28;20508;-71
2022/09/28 06:35:34;;;;;;;12.90;1.80;;;9.70;97.50;;;;;;5004669;28;20427;-71
2022/09/28 06:38:00;;;;;;;4.40;1.90;;;9.70;97.40;;;;;;4996830;28;20541;-71
2022/09/28 06:40:26;;;;;;;3.43;2.13;;;9.80;97.40;;;;;;5005025;28;20779;-71
2022/09/28 06:42:56;;;;;;;5.03;2.10;;;9.80;97.40;;;;;;4997530;28;20416;-71
2022/09/28 06:45:24;;;;;;;4.03;2.77;;;9.90;97.60;;;;;;4986612;28;20186;-71
2022/09/28 06:47:57;;;;;;;4.07;2.47;;;9.90;97.40;;;;;;5007764;28;20463;-71
2022/09/28 06:50:25;;;;;;;6.53;3.00;;;9.90;97.30;;;;;;5010429;28;20436;-71
2022/09/28 06:52:52;;;;;;;5.10;2.30;;;10.00;97.20;;;;;;5008436;28;20421;-71
2022/09/28 06:55:18;;;;;;;4.20;2.20;;;10.00;97.00;;;;;;5007869;28;20916;-72
2022/09/28 06:57:44;;;;;;;4.67;2.13;;;10.00;96.80;;;;;;5004086;28;20556;-70
2022/09/28 07:00:10;;;;;;;5.23;2.33;;;10.00;96.50;;;;;;4999852;28;20618;-70
2022/09/28 07:02:35;;;;;;;4.43;2.50;;;10.00;96.20;;;;;;4983119;28;20549;-71
2022/09/28 07:05:01;;;;;;;5.03;2.67;;;10.00;96.10;;;;;;5000438;28;20424;-71
2022/09/28 07:07:27;;;;;;;7.17;2.53;;;10.10;96.20;;;;;;5007195;28;20210;-70
2022/09/28 07:09:54;;;;;;;4.83;2.63;;;10.10;96.20;;;;;;5003751;28;20430;-70
2022/09/28 07:12:22;;;;;;;7.00;2.50;;;10.10;96.20;;;;;;5010050;28;20652;-72
2022/09/28 07:14:48;;;;;;;5.40;2.40;;;9.90;95.70;;;;;;5007391;28;20429;-71
2022/09/28 07:17:14;;;;;;;5.70;2.73;;;9.90;96.20;;;;;;5005698;28;20568;-71
2022/09/28 07:19:40;;;;;;;4.57;2.90;;;10.00;96.50;;;;;;4994366;28;20433;-72
2022/09/28 07:22:06;;;;;;;6.53;3.30;;;10.00;96.50;;;;;;5003009;28;20452;-71
2022/09/28 07:24:31;;;;;;;5.90;3.03;;;10.00;96.40;;;;;;4998032;28;20190;-71
2022/09/28 07:26:57;;;;;;;8.33;3.83;;;9.90;96.00;;;;;;4999891;28;20206;-71
2022/09/28 07:29:22;;;;;;;12.13;2.87;;;9.90;96.00;;;;;;5001101;28;20190;-71
2022/09/28 07:31:48;;;;;;;6.80;3.30;;;10.00;96.30;;;;;;5007697;28;20629;-70
2022/09/28 07:34:14;;;;;;;6.33;2.70;;;10.00;96.20;;;;;;5009240;28;20189;-70
2022/09/28 07:36:39;;;;;;;3.90;3.00;;;10.10;96.20;;;;;;5001418;28;20217;-71
2022/09/28 07:39:05;;;;;;;5.60;2.50;;;10.10;96.00;;;;;;5008894;28;20645;-70
2022/09/28 07:41:33;;;;;;;4.90;2.80;;;10.10;95.60;;;;;;5002779;28;20810;-70
2022/09/28 07:44:04;;;;;;;3.93;2.43;;;10.20;95.70;;;;;;5007929;28;20182;-72
2022/09/28 07:46:34;;;;;;;4.70;2.60;;;10.30;95.30;;;;;;5003374;28;20443;-70
2022/09/28 07:48:59;;;;;;;3.27;2.47;;;10.20;94.70;;;;;;5006222;28;20437;-71
2022/09/28 07:51:25;;;;;;;6.30;2.97;;;10.20;94.20;;;;;;4987721;28;20413;-69
2022/09/28 07:53:53;;;;;;;9.27;2.93;;;10.30;94.50;;;;;;5004708;28;20178;-70
2022/09/28 07:56:19;;;;;;;8.60;2.67;;;10.40;94.50;;;;;;5001898;28;20189;-71
2022/09/28 07:58:46;;;;;;;5.50;2.77;;;10.50;94.20;;;;;;5002166;28;20436;-71
2022/09/28 08:01:15;;;;;;;6.37;3.33;;;10.60;94.10;;;;;;5002162;28;20419;-72
2022/09/28 08:03:44;;;;;;;3.63;2.53;;;10.80;93.80;;;;;;4999219;28;20436;-71
2022/09/28 08:06:11;;;;;;;5.87;2.77;;;10.80;93.20;;;;;;4985438;28;20907;-70
2022/09/28 08:08:43;;;;;;;5.60;2.60;;;10.80;92.80;;;;;;4984224;28;20530;-70
2022/09/28 08:11:10;;;;;;;6.63;2.80;;;10.90;92.50;;;;;;4996305;28;20431;-71
2022/09/28 08:13:36;;;;;;;8.53;3.53;;;10.90;92.40;;;;;;4998076;28;20520;-71
2022/09/28 08:16:03;;;;;;;4.87;2.60;;;10.80;92.50;;;;;;5005681;28;20429;-72
2022/09/28 08:18:29;;;;;;;3.70;2.43;;;11.00;92.80;;;;;;4998590;28;20481;-71
2022/09/28 08:23:39;;;;;;;3.97;2.60;;;11.00;91.70;;;;;;4998274;28;20509;-71
2022/09/28 08:26:05;;;;;;;6.20;2.80;;;11.00;91.50;;;;;;5011491;28;20453;-71
2022/09/28 08:28:31;;;;;;;4.97;2.67;;;11.10;91.80;;;;;;5008371;28;20205;-70
2022/09/28 08:31:00;;;;;;;6.93;2.57;;;11.20;92.00;;;;;;5004879;28;20428;-71
2022/09/28 08:33:26;;;;;;;8.23;3.23;;;11.30;91.70;;;;;;5003637;28;20428;-71
2022/09/28 08:36:00;;;;;;;9.93;4.03;;;11.50;91.10;;;;;;5002427;28;20471;-72
2022/09/28 08:38:28;;;;;;;4.47;2.70;;;11.40;90.30;;;;;;5008384;28;20990;-70
2022/09/28 08:41:12;;;;;;;8.70;4.13;;;11.30;90.10;;;;;;4994495;28;20799;-71
2022/09/28 08:43:50;;;;;;;5.60;2.33;;;11.40;90.10;;;;;;5009417;28;20473;-70
2022/09/28 08:46:19;;;;;;;6.97;2.90;;;11.50;88.40;;;;;;5002114;28;20408;-70
2022/09/28 08:48:57;;;;;;;4.50;2.40;;;11.60;88.90;;;;;;5003741;28;20996;-71
2022/09/28 08:51:34;;;;;;;8.37;2.60;;;11.60;88.40;;;;;;5005350;28;20448;-70
2022/09/28 08:54:22;;;;;;;2.93;2.30;;;11.60;87.80;;;;;;5003354;28;20424;-69
2022/09/28 08:56:52;;;;;;;5.83;3.07;;;11.50;88.10;;;;;;4982556;28;20516;-71
2022/09/28 08:59:42;;;;;;;4.80;3.23;;;11.60;88.30;;;;;;4997452;28;20401;-72
2022/09/28 09:02:15;;;;;;;3.07;2.50;;;11.60;89.00;;;;;;5004442;28;20914;-71
2022/09/28 09:04:41;;;;;;;11.83;2.87;;;11.20;88.40;;;;;;5001208;28;20437;-70
2022/09/28 09:07:32;;;;;;;7.53;3.10;;;11.10;88.90;;;;;;4990406;28;20495;-71
2022/09/28 09:10:16;;;;;;;4.70;2.53;;;11.10;86.60;;;;;;5001704;28;20452;-71
2022/09/28 09:13:07;;;;;;;5.53;2.97;;;11.10;86.50;;;;;;5003476;28;20459;-71
2022/09/28 09:15:48;;;;;;;3.93;2.53;;;11.20;86.50;;;;;;5004744;28;20421;-70
2022/09/28 09:18:28;;;;;;;6.87;2.60;;;11.40;86.30;;;;;;5001528;28;20972;-71
2022/09/28 09:21:01;;;;;;;11.07;4.00;;;11.50;85.20;;;;;;5001392;28;20514;-68
2022/09/28 09:23:38;;;;;;;3.87;2.77;;;11.30;85.60;;;;;;5005019;28;20421;-71
2022/09/28 09:26:19;;;;;;;3.43;2.70;;;11.60;85.20;;;;;;5002650;28;20455;-70
2022/09/28 09:29:03;;;;;;;7.83;2.50;;;11.70;83.70;;;;;;5006098;28;20450;-71
2022/09/28 09:31:58;;;;;;;3.97;2.50;;;11.80;83.80;;;;;;4999525;28;20437;-71
2022/09/28 09:34:32;;;;;;;6.03;2.73;;;11.70;83.60;;;;;;5004360;28;20443;-71
2022/09/28 09:37:18;;;;;;;3.93;2.20;;;11.70;84.00;;;;;;5006147;28;20473;-70
2022/09/28 09:40:23;;;;;;;6.67;2.83;;;11.90;83.80;;;;;;4965390;28;20408;-71
2022/09/28 09:43:17;;;;;;;5.10;2.90;;;11.80;83.60;;;;;;5003219;28;20785;-69
2022/09/28 09:45:48;;;;;;;5.63;2.70;;;11.60;85.00;;;;;;5004135;28;20421;-70
2022/09/28 09:48:17;;;;;;;6.40;3.17;;;11.60;84.60;;;;;;5003353;28;20527;-72
2022/09/28 09:50:46;;;;;;;5.93;2.97;;;11.90;83.80;;;;;;4988887;28;20449;-71
2022/09/28 09:53:41;;;;;;;5.23;3.40;;;12.00;83.10;;;;;;4989749;28;20457;-71
2022/09/28 09:56:18;;;;;;;4.23;2.97;;;11.90;83.00;;;;;;5007642;28;21308;-71
2022/09/28 09:58:50;;;;;;;8.70;3.37;;;12.10;83.10;;;;;;5008436;28;20559;-70
2022/09/28 10:01:32;;;;;;;4.70;2.93;;;12.20;81.50;;;;;;4987465;28;20984;-70
2022/09/28 10:03:58;;;;;;;3.80;3.10;;;12.20;80.60;;;;;;5011913;28;20979;-73
2022/09/28 10:06:30;;;;;;;8.60;3.10;;;12.20;82.10;;;;;;5001539;28;20449;-71
2022/09/28 10:09:00;;;;;;;8.50;3.23;;;12.30;82.40;;;;;;5008198;28;20427;-72
2022/09/28 10:11:30;;;;;;;8.17;2.97;;;12.50;80.80;;;;;;5003630;28;20413;-71
2022/09/28 10:13:56;;;;;;;6.17;2.77;;;12.50;79.20;;;;;;5009045;28;20417;-71
2022/09/28 10:16:23;;;;;;;11.50;3.33;;;12.50;78.30;;;;;;5007717;28;20433;-70
2022/09/28 10:18:48;;;;;;;3.93;2.63;;;12.60;78.00;;;;;;5003945;28;20476;-72
2022/09/28 10:21:16;;;;;;;4.93;3.23;;;12.50;77.70;;;;;;4996211;28;20455;-71
2022/09/28 10:23:43;;;;;;;8.00;3.27;;;12.50;78.10;;;;;;5007652;28;20178;-71
2022/09/28 10:26:14;;;;;;;8.40;3.40;;;12.40;78.90;;;;;;5009901;28;20417;-72
2022/09/28 10:28:48;;;;;;;6.37;2.93;;;12.40;79.30;;;;;;5004864;28;20437;-70
2022/09/28 10:31:34;;;;;;;3.67;3.10;;;12.60;78.70;;;;;;5003580;28;20410;-71
2022/09/28 10:33:59;;;;;;;5.40;2.93;;;12.60;79.30;;;;;;5010241;28;20437;-71
2022/09/28 10:36:25;;;;;;;6.67;3.20;;;12.50;77.10;;;;;;5007712;28;20424;-71
2022/09/28 10:38:52;;;;;;;4.27;2.90;;;12.40;78.00;;;;;;5005033;28;20212;-72
2022/09/28 10:41:20;;;;;;;14.03;3.20;;;12.30;78.00;;;;;;4991438;28;20213;-70
2022/09/28 10:44:06;;;;;;;4.60;2.80;;;12.30;78.00;;;;;;5008290;28;20432;-72
2022/09/28 10:46:33;;;;;;;4.63;2.93;;;12.30;78.90;;;;;;5003860;28;20507;-69
2022/09/28 10:49:05;;;;;;;5.73;2.77;;;12.50;78.00;;;;;;4998744;28;20433;-70
2022/09/28 10:51:45;;;;;;;4.10;2.70;;;12.60;76.50;;;;;;5005069;28;20437;-72
2022/09/28 10:54:30;;;;;;;5.60;2.70;;;12.70;76.50;;;;;;5008339;28;20834;-71
2022/09/28 10:56:57;;;;;;;7.53;3.10;;;12.90;76.10;;;;;;5002703;28;20959;-69
2022/09/28 10:59:29;;;;;;;4.63;2.30;;;13.10;76.10;;;;;;5009583;28;20427;-70
2022/09/28 11:02:11;;;;;;;4.17;3.10;;;13.20;75.10;;;;;;5007032;28;20424;-70
2022/09/28 11:04:40;;;;;;;22.17;3.70;;;13.20;75.40;;;;;;5004458;28;20485;-71
2022/09/28 11:07:17;;;;;;;8.07;3.30;;;13.00;75.10;;;;;;5004928;28;20487;-70
2022/09/28 11:09:46;;;;;;;4.07;2.40;;;13.00;74.00;;;;;;4990687;28;20420;-71
2022/09/28 11:12:19;;;;;;;4.93;3.13;;;13.00;74.50;;;;;;4999039;28;20452;-72
2022/09/28 11:14:51;;;;;;;8.83;2.97;;;12.60;75.40;;;;;;5007062;28;20497;-71
2022/09/28 11:17:39;;;;;;;3.77;2.50;;;12.40;76.40;;;;;;5007814;28;20491;-71
2022/09/28 11:20:23;;;;;;;5.53;3.20;;;12.30;77.60;;;;;;5007694;28;20432;-71
2022/09/28 11:22:50;;;;;;;3.80;3.03;;;12.50;77.30;;;;;;4998554;28;20460;-71
2022/09/28 11:25:15;;;;;;;5.70;3.03;;;12.70;77.40;;;;;;5001373;28;20966;-71
2022/09/28 11:28:05;;;;;;;5.03;3.20;;;12.90;76.20;;;;;;5005504;28;20472;-70
2022/09/28 11:30:43;;;;;;;7.47;3.47;;;12.90;76.20;;;;;;5004515;28;20186;-71
2022/09/28 11:33:18;;;;;;;5.13;3.03;;;12.90;74.00;;;;;;5003420;28;20475;-71
2022/09/28 11:36:09;;;;;;;5.40;3.00;;;12.70;75.10;;;;;;5006392;28;20505;-71
2022/09/28 11:38:55;;;;;;;5.30;3.07;;;12.60;75.70;;;;;;4988581;28;20474;-70
2022/09/28 11:41:52;;;;;;;11.00;2.37;;;12.90;75.50;;;;;;5006128;28;20943;-71
2022/09/28 11:44:54;;;;;;;3.93;2.50;;;13.00;73.50;;;;;;5003795;28;20511;-71
2022/09/28 11:47:43;;;;;;;6.53;2.37;;;13.00;73.60;;;;;;4928852;29;20475;-71
2022/09/28 11:50:25;;;;;;;6.03;2.73;;;13.10;73.70;;;;;;4931054;29;20425;-71
2022/09/28 11:53:07;;;;;;;6.70;2.77;;;13.20;73.50;;;;;;4930879;29;20428;-71
2022/09/28 11:55:52;;;;;;;5.37;2.70;;;13.30;73.00;;;;;;4930141;29;20851;-70
2022/09/28 11:58:34;;;;;;;4.90;2.60;;;13.30;71.80;;;;;;4928163;29;20487;-69
2022/09/28 12:01:15;;;;;;;5.37;2.83;;;12.90;72.70;;;;;;4930499;29;20511;-71
2022/09/28 12:03:50;;;;;;;3.43;2.10;;;13.20;73.30;;;;;;4930784;29;20465;-70
2022/09/28 12:06:21;;;;;;;8.20;2.57;;;13.60;69.80;;;;;;4930882;29;20424;-71
2022/09/28 12:08:54;;;;;;;6.87;2.73;;;13.90;70.70;;;;;;4930113;29;20452;-72
2022/09/28 12:11:31;;;;;;;2.90;2.20;;;14.20;70.50;;;;;;4930283;29;20434;-71
2022/09/28 12:13:59;;;;;;;7.53;2.93;;;14.40;70.20;;;;;;4928791;29;20471;-72
2022/09/28 12:16:34;;;;;;;2.50;1.83;;;14.30;69.90;;;;;;4929719;29;20532;-70
2022/09/28 12:19:07;;;;;;;3.73;1.90;;;14.30;68.60;;;;;;4930270;29;20444;-71
2022/09/28 12:21:41;;;;;;;4.10;1.70;;;14.10;68.20;;;;;;4931242;29;20448;-70
2022/09/28 12:24:18;;;;;;;2.67;1.90;;;14.10;68.50;;;;;;5005440;28;20432;-70
2022/09/28 12:26:49;;;;;;;4.37;1.87;;;14.40;68.50;;;;;;5003251;28;20985;-69
2022/09/28 12:29:25;;;;;;;7.20;2.10;;;14.60;67.50;;;;;;5008264;28;20433;-71
2022/09/28 12:32:13;;;;;;;4.13;2.83;;;14.60;66.90;;;;;;5004274;28;20413;-69
2022/09/28 12:34:41;;;;;;;3.80;1.90;;;14.20;65.80;;;;;;5002874;28;20424;-70
2022/09/28 12:37:27;;;;;;;3.87;2.10;;;14.60;67.20;;;;;;5004843;28;20848;-73
2022/09/28 12:40:14;;;;;;;4.60;2.77;;;14.90;66.70;;;;;;5010073;28;20432;-70
2022/09/28 12:43:18;;;;;;;5.20;2.13;;;14.90;66.10;;;;;;5009012;28;20520;-70
2022/09/28 12:46:04;;;;;;;2.73;1.73;;;15.20;65.10;;;;;;4954361;28;20424;-71
2022/09/28 12:48:47;;;;;;;7.43;2.23;;;14.80;65.10;;;;;;5004172;28;20464;-70
2022/09/28 12:51:15;;;;;;;4.10;1.43;;;14.40;67.30;;;;;;5000895;28;20428;-69
2022/09/28 12:54:04;;;;;;;2.90;2.00;;;14.40;65.80;;;;;;5005969;28;20492;-70
2022/09/28 12:56:40;;;;;;;3.30;1.70;;;14.20;66.60;;;;;;5008079;28;20431;-70
2022/09/28 12:59:13;;;;;;;2.17;1.53;;;14.20;65.70;;;;;;5009339;28;20432;-70
2022/09/28 13:02:06;;;;;;;4.00;1.77;;;14.00;65.40;;;;;;5003906;28;20427;-70
2022/09/28 13:04:48;;;;;;;2.67;1.80;;;14.00;65.60;;;;;;5001983;28;20499;-70
2022/09/28 13:07:24;;;;;;;5.07;1.80;;;14.10;66.10;;;;;;5003868;28;20488;-70
2022/09/28 13:10:31;;;;;;;4.07;1.70;;;14.20;66.90;;;;;;5005889;28;20922;-69
2022/09/28 13:13:33;;;;;;;2.03;1.50;;;14.50;67.00;;;;;;5000363;28;20416;-71
2022/09/28 13:16:04;;;;;;;2.93;1.40;;;14.40;64.10;;;;;;4985476;28;20452;-70
2022/09/28 13:18:51;;;;;;;3.03;1.50;;;14.20;64.10;;;;;;4989077;28;20476;-69
2022/09/28 13:21:37;;;;;;;3.83;1.73;;;14.20;64.70;;;;;;5007954;28;20453;-71
2022/09/28 13:24:04;;;;;;;5.97;2.07;;;14.20;64.70;;;;;;5002685;28;20413;-71